Time;durP1;ratioP1;P1;durP2;ratioP2;P2;SDS_P1;SDS_P2;PMS_P1;PMS_P2;Temp;Humidity;BMP_temperature;BMP_pressure;BME280_temperature;BME280_humidity;BME280_pressure;Samples;Min_cycle;Max_cycle;Signal;HPM_P1;HPM_P2
2022/02/18 00:01:19;;;;;;;9.00;4.97;;;5.10;99.90;;;;;;5033188;28;20033;-93
2022/02/18 00:03:47;;;;;;;9.23;5.22;;;5.10;99.90;;;;;;5011996;28;20345;-94
2022/02/18 00:06:13;;;;;;;10.30;5.32;;;5.20;99.90;;;;;;5011364;28;20046;-93
2022/02/18 00:08:39;;;;;;;9.48;4.90;;;5.10;99.90;;;;;;5019768;28;20018;-94
2022/02/18 00:11:05;;;;;;;10.32;5.55;;;5.10;99.90;;;;;;5019628;28;20030;-94
2022/02/18 00:13:36;;;;;;;12.05;5.68;;;5.10;99.90;;;;;;5027340;23;20051;-95
2022/02/18 00:16:04;;;;;;;9.05;4.75;;;5.10;99.90;;;;;;5538293;23;20069;-96
2022/02/18 00:18:30;;;;;;;9.25;5.05;;;5.10;99.90;;;;;;4978695;28;20047;-93
2022/02/18 00:20:59;;;;;;;7.93;4.30;;;5.00;99.90;;;;;;4960353;29;20094;-94
2022/02/18 00:23:25;;;;;;;8.55;3.90;;;5.00;99.90;;;;;;4961023;29;20083;-95
2022/02/18 00:25:51;;;;;;;7.57;4.00;;;4.90;99.90;;;;;;4979219;29;20035;-96
2022/02/18 00:28:17;;;;;;;7.65;4.10;;;4.80;99.90;;;;;;4957661;29;20132;-95
2022/02/18 00:30:44;;;;;;;7.75;4.53;;;4.80;99.90;;;;;;4964678;28;20078;-93
2022/02/18 00:35:48;;;;;;;8.65;4.95;;;4.70;99.90;;;;;;5279582;23;20048;-95
2022/02/18 00:38:14;;;;;;;7.70;4.60;;;4.70;99.90;;;;;;5001875;28;20094;-95
2022/02/18 00:40:40;;;;;;;9.55;4.70;;;4.60;99.90;;;;;;5021106;23;20039;-92
2022/02/18 00:43:06;;;;;;;8.38;4.63;;;4.60;99.90;;;;;;4995423;28;20053;-92
2022/02/18 00:45:32;;;;;;;8.23;4.97;;;4.50;99.90;;;;;;4979299;28;20023;-91
2022/02/18 00:47:59;;;;;;;7.45;4.10;;;4.50;99.90;;;;;;4982285;28;20023;-92
2022/02/18 00:50:26;;;;;;;7.28;4.50;;;4.50;99.90;;;;;;4977486;28;20370;-90
2022/02/18 00:52:52;;;;;;;8.38;4.65;;;4.50;99.90;;;;;;4976171;28;20030;-91
2022/02/18 00:55:18;;;;;;;7.57;4.22;;;4.50;99.90;;;;;;4978082;28;20053;-90
2022/02/18 00:57:44;;;;;;;6.95;4.28;;;4.50;99.90;;;;;;4977847;28;20536;-91
2022/02/18 01:00:12;;;;;;;7.72;4.40;;;4.50;99.90;;;;;;4977273;28;20098;-90
2022/02/18 01:02:39;;;;;;;6.88;3.85;;;4.50;99.90;;;;;;4977439;28;20034;-91
2022/02/18 01:05:05;;;;;;;7.35;3.92;;;4.50;99.90;;;;;;4976709;28;20038;-90
2022/02/18 01:07:36;;;;;;;7.53;4.03;;;4.40;99.90;;;;;;4984490;28;20022;-89
2022/02/18 01:10:03;;;;;;;7.07;4.00;;;4.40;99.90;;;;;;4988966;28;20073;-92
2022/02/18 01:12:29;;;;;;;6.82;3.92;;;4.30;99.90;;;;;;4977503;28;20053;-90
2022/02/18 01:14:55;;;;;;;7.22;3.95;;;4.30;99.90;;;;;;4976309;28;20376;-90
2022/02/18 01:17:20;;;;;;;5.05;3.25;;;4.20;99.90;;;;;;4976919;28;20034;-92
2022/02/18 01:19:46;;;;;;;5.53;3.28;;;4.20;99.90;;;;;;4976612;28;20088;-90
2022/02/18 01:22:12;;;;;;;5.85;3.33;;;4.10;99.90;;;;;;4976269;28;20326;-89
2022/02/18 01:24:38;;;;;;;7.13;3.60;;;4.10;99.90;;;;;;4975974;28;20103;-91
2022/02/18 01:27:04;;;;;;;5.20;3.40;;;4.10;99.90;;;;;;4976733;28;20030;-90
2022/02/18 01:29:30;;;;;;;5.80;3.17;;;4.00;99.90;;;;;;4976003;28;20022;-90
2022/02/18 01:31:56;;;;;;;6.40;3.42;;;4.00;99.90;;;;;;4975617;28;20101;-91
2022/02/18 01:34:21;;;;;;;5.60;3.28;;;4.00;99.90;;;;;;4976681;28;20030;-90
2022/02/18 01:36:47;;;;;;;7.57;3.60;;;4.00;99.90;;;;;;4986575;28;20027;-88
2022/02/18 01:39:13;;;;;;;5.97;3.90;;;4.10;99.90;;;;;;4983363;28;20023;-89
2022/02/18 01:41:38;;;;;;;6.85;3.70;;;4.10;99.90;;;;;;4978041;28;20058;-90
2022/02/18 01:44:05;;;;;;;5.82;3.60;;;4.20;99.90;;;;;;4974502;28;20082;-91
2022/02/18 01:46:32;;;;;;;7.57;4.30;;;4.20;99.90;;;;;;4974193;28;20473;-90
2022/02/18 01:48:59;;;;;;;9.20;5.20;;;4.30;99.90;;;;;;4975862;28;20113;-88
2022/02/18 01:51:25;;;;;;;9.90;5.00;;;4.30;99.90;;;;;;4974106;28;20030;-88
2022/02/18 01:53:52;;;;;;;8.70;5.22;;;4.40;99.90;;;;;;4978391;28;20023;-88
2022/02/18 01:56:21;;;;;;;7.97;4.82;;;4.30;99.90;;;;;;4986469;28;20027;-89
2022/02/18 01:58:47;;;;;;;8.35;4.50;;;4.40;99.90;;;;;;4998431;28;20039;-91
2022/02/18 02:01:13;;;;;;;7.75;4.35;;;4.40;99.90;;;;;;4998298;28;20042;-89
2022/02/18 02:03:41;;;;;;;7.00;3.92;;;4.40;99.90;;;;;;4989581;28;20081;-87
2022/02/18 02:06:08;;;;;;;6.90;4.07;;;4.50;99.90;;;;;;4981334;28;20027;-89
2022/02/18 02:08:36;;;;;;;6.07;3.55;;;4.50;99.90;;;;;;4978025;28;20034;-88
2022/02/18 02:11:02;;;;;;;5.38;3.50;;;4.50;99.90;;;;;;4975536;28;20045;-88
2022/02/18 02:13:38;;;;;;;5.68;3.35;;;4.60;99.90;;;;;;4974212;28;20023;-89
2022/02/18 02:16:04;;;;;;;5.72;3.40;;;4.70;99.90;;;;;;4975937;28;20081;-89
2022/02/18 02:18:31;;;;;;;4.85;3.45;;;4.60;99.90;;;;;;4974969;28;20058;-90
2022/02/18 02:20:57;;;;;;;4.70;3.17;;;4.70;99.90;;;;;;4974597;28;20458;-91
2022/02/18 02:23:23;;;;;;;6.03;3.15;;;4.70;99.90;;;;;;4974526;28;20085;-90
2022/02/18 02:25:49;;;;;;;4.50;3.00;;;4.80;99.90;;;;;;4974615;28;20073;-89
2022/02/18 02:28:15;;;;;;;5.80;3.20;;;4.80;99.90;;;;;;4975058;28;20416;-89
2022/02/18 02:30:41;;;;;;;7.10;3.70;;;4.80;99.90;;;;;;4974743;28;20023;-91
2022/02/18 02:33:07;;;;;;;6.40;3.60;;;4.90;99.90;;;;;;4993499;28;20066;-89
2022/02/18 02:35:32;;;;;;;5.28;3.40;;;4.90;99.90;;;;;;4979835;28;20047;-90
2022/02/18 02:37:58;;;;;;;5.75;3.22;;;4.90;99.90;;;;;;4974437;28;20030;-92
2022/02/18 02:40:24;;;;;;;7.25;3.40;;;4.90;99.90;;;;;;4974301;28;20031;-92
2022/02/18 02:42:50;;;;;;;4.63;3.00;;;5.00;99.90;;;;;;4976070;28;20047;-90
2022/02/18 02:45:16;;;;;;;5.13;3.30;;;5.00;99.90;;;;;;4974545;28;20121;-91
2022/02/18 02:47:45;;;;;;;6.60;3.47;;;5.00;99.90;;;;;;4974775;28;20058;-89
2022/02/18 02:50:11;;;;;;;5.82;3.22;;;5.00;99.90;;;;;;4974509;28;20113;-90
2022/02/18 02:52:37;;;;;;;5.07;2.90;;;4.90;99.90;;;;;;4974137;28;20026;-90
2022/02/18 02:55:13;;;;;;;5.60;3.10;;;5.00;99.90;;;;;;4976917;28;20023;-91
2022/02/18 02:57:40;;;;;;;5.00;2.75;;;5.00;99.90;;;;;;4978703;28;20361;-89
2022/02/18 03:00:10;;;;;;;3.83;2.50;;;5.00;99.90;;;;;;4987356;28;20126;-88
2022/02/18 03:02:35;;;;;;;3.80;2.58;;;5.00;99.90;;;;;;4992524;28;20041;-89
2022/02/18 03:05:02;;;;;;;4.00;2.35;;;5.00;99.90;;;;;;4980910;28;20434;-90
2022/02/18 03:07:27;;;;;;;4.03;2.50;;;5.00;99.90;;;;;;4979669;28;20035;-90
2022/02/18 03:09:53;;;;;;;4.63;2.70;;;5.00;99.90;;;;;;4978829;28;20041;-89
2022/02/18 03:12:19;;;;;;;4.32;2.50;;;5.00;99.90;;;;;;4979353;28;20034;-90
2022/02/18 03:14:44;;;;;;;3.97;2.67;;;5.10;99.90;;;;;;4978905;28;20353;-90
2022/02/18 03:17:10;;;;;;;2.92;2.00;;;5.10;99.90;;;;;;4977631;28;20026;-89
2022/02/18 03:19:36;;;;;;;4.63;2.45;;;5.10;99.90;;;;;;4978899;28;20031;-90
2022/02/18 03:22:02;;;;;;;4.10;2.42;;;5.10;99.90;;;;;;4982932;28;20030;-91
2022/02/18 03:24:30;;;;;;;5.32;2.65;;;5.10;99.90;;;;;;4980688;28;20026;-94
2022/02/18 03:26:56;;;;;;;3.85;2.30;;;5.10;99.90;;;;;;4983589;28;20104;-92
2022/02/18 03:29:21;;;;;;;6.13;2.92;;;5.10;99.90;;;;;;4988338;28;20011;-90
2022/02/18 03:31:47;;;;;;;5.07;3.05;;;5.10;99.90;;;;;;4995471;28;20054;-94
2022/02/18 03:34:15;;;;;;;4.25;2.60;;;5.10;99.90;;;;;;4984414;28;20414;-94
2022/02/18 03:36:41;;;;;;;5.00;2.60;;;5.10;99.90;;;;;;4977890;28;20033;-92
2022/02/18 03:39:09;;;;;;;5.28;2.88;;;5.10;99.90;;;;;;4977927;28;20027;-92
2022/02/18 03:41:35;;;;;;;5.85;3.05;;;5.10;99.90;;;;;;4978641;28;20043;-91
2022/02/18 03:44:00;;;;;;;5.90;3.05;;;5.10;99.90;;;;;;4977745;28;20050;-92
2022/02/18 03:46:26;;;;;;;5.43;3.13;;;5.10;99.90;;;;;;4978073;28;20085;-92
2022/02/18 03:48:52;;;;;;;6.68;4.40;;;5.10;99.90;;;;;;4979140;28;20523;-91
2022/02/18 03:51:19;;;;;;;7.72;5.40;;;5.20;99.90;;;;;;4977267;28;20030;-91
2022/02/18 03:53:46;;;;;;;10.73;6.25;;;5.20;99.90;;;;;;4978390;28;20027;-89
2022/02/18 03:56:13;;;;;;;16.25;7.40;;;5.20;99.90;;;;;;4978034;28;20117;-90
2022/02/18 03:58:39;;;;;;;15.80;7.13;;;5.20;99.90;;;;;;4988463;28;20058;-89
2022/02/18 04:01:05;;;;;;;19.20;7.72;;;5.20;99.90;;;;;;4979606;28;20042;-90
2022/02/18 04:03:31;;;;;;;18.77;7.47;;;5.20;99.90;;;;;;4977976;28;20026;-89
2022/02/18 04:05:57;;;;;;;14.63;7.35;;;5.30;99.90;;;;;;4977416;28;20084;-88
2022/02/18 04:08:23;;;;;;;14.77;6.97;;;5.30;99.90;;;;;;4976439;28;20061;-88
2022/02/18 04:10:49;;;;;;;12.65;6.38;;;5.30;99.90;;;;;;4976927;28;20031;-87
2022/02/18 04:13:14;;;;;;;11.82;5.82;;;5.30;99.90;;;;;;4977094;28;20457;-88
2022/02/18 04:15:40;;;;;;;11.85;5.47;;;5.30;99.90;;;;;;4977216;28;20026;-88
2022/02/18 04:18:06;;;;;;;17.15;7.88;;;5.30;99.90;;;;;;4976474;28;20037;-87
2022/02/18 04:20:31;;;;;;;14.43;7.10;;;5.30;99.90;;;;;;4975758;28;20086;-87
2022/02/18 04:22:57;;;;;;;13.02;6.75;;;5.40;99.90;;;;;;4977050;28;20037;-88
2022/02/18 04:25:23;;;;;;;16.17;8.10;;;5.40;99.90;;;;;;4977148;28;20081;-89
2022/02/18 04:27:53;;;;;;;19.10;8.77;;;5.40;99.90;;;;;;4995576;28;20052;-88
2022/02/18 04:30:19;;;;;;;19.13;9.43;;;5.40;99.90;;;;;;4977430;28;20361;-90
2022/02/18 04:32:46;;;;;;;26.23;12.18;;;5.40;99.90;;;;;;4978407;28;20057;-91
2022/02/18 04:35:12;;;;;;;24.33;13.15;;;5.40;99.90;;;;;;4975976;28;20453;-90
2022/02/18 04:37:38;;;;;;;19.90;11.85;;;5.40;99.90;;;;;;4990058;28;20038;-92
2022/02/18 04:40:04;;;;;;;17.50;9.70;;;5.40;99.90;;;;;;4987327;28;20034;-90
2022/02/18 04:42:30;;;;;;;14.40;8.20;;;5.40;99.90;;;;;;4982030;28;20074;-90
2022/02/18 04:44:55;;;;;;;11.40;6.72;;;5.40;99.90;;;;;;4979880;28;20030;-93
2022/02/18 04:47:21;;;;;;;9.05;4.93;;;5.40;99.90;;;;;;4979268;28;20085;-91
2022/02/18 04:49:47;;;;;;;6.75;3.88;;;5.40;99.90;;;;;;4980830;28;20034;-90
2022/02/18 04:52:14;;;;;;;6.40;3.55;;;5.40;99.90;;;;;;4996161;28;20034;-89
2022/02/18 04:54:39;;;;;;;4.97;2.92;;;5.40;99.90;;;;;;4985382;28;20050;-87
2022/02/18 04:57:05;;;;;;;4.97;3.25;;;5.50;99.90;;;;;;4988204;28;20030;-92
2022/02/18 04:59:31;;;;;;;5.18;3.40;;;5.40;99.90;;;;;;4960477;28;20031;-91
2022/02/18 05:01:57;;;;;;;13.27;7.40;;;5.50;99.90;;;;;;4976408;28;20030;-91
2022/02/18 05:04:24;;;;;;;12.05;7.07;;;5.50;99.90;;;;;;4978418;28;20022;-90
2022/02/18 05:06:50;;;;;;;14.85;8.95;;;5.50;99.90;;;;;;4977329;28;20082;-93
2022/02/18 05:09:16;;;;;;;14.98;8.95;;;5.50;99.90;;;;;;4978327;28;20023;-91
2022/02/18 05:11:42;;;;;;;12.13;7.75;;;5.50;99.90;;;;;;4981680;28;20029;-93
2022/02/18 05:14:08;;;;;;;9.15;5.75;;;5.40;99.90;;;;;;4980868;28;20114;-93
2022/02/18 05:16:34;;;;;;;7.40;4.63;;;5.40;99.90;;;;;;4978699;28;20360;-93
2022/02/18 05:19:00;;;;;;;4.88;3.28;;;5.40;99.90;;;;;;4976540;28;20077;-92
2022/02/18 05:21:25;;;;;;;4.78;2.75;;;5.40;99.90;;;;;;4982853;28;20034;-92
2022/02/18 05:23:53;;;;;;;4.70;2.60;;;5.40;99.90;;;;;;4992852;28;20031;-90
2022/02/18 05:26:19;;;;;;;4.45;2.70;;;5.40;99.90;;;;;;4998479;28;20030;-92
2022/02/18 05:28:44;;;;;;;4.10;2.58;;;5.40;99.90;;;;;;4997990;28;20058;-91
2022/02/18 05:31:10;;;;;;;5.80;3.03;;;5.40;99.90;;;;;;4987888;28;20026;-93
2022/02/18 05:33:36;;;;;;;4.70;2.90;;;5.40;99.90;;;;;;4977829;28;20042;-92
2022/02/18 05:36:03;;;;;;;4.75;2.70;;;5.40;99.90;;;;;;4976661;28;20026;-88
2022/02/18 05:38:29;;;;;;;5.20;2.95;;;5.30;99.90;;;;;;4961123;28;20031;-94
2022/02/18 05:40:55;;;;;;;4.60;3.38;;;5.30;99.90;;;;;;4983114;28;20430;-93
2022/02/18 05:43:24;;;;;;;4.97;2.72;;;5.30;99.90;;;;;;4976713;28;20105;-92
2022/02/18 05:45:50;;;;;;;3.65;2.53;;;5.30;99.90;;;;;;4979222;28;20050;-93
2022/02/18 05:48:15;;;;;;;4.13;2.83;;;5.30;99.90;;;;;;4978740;28;20058;-93
2022/02/18 05:50:41;;;;;;;4.18;2.70;;;5.30;99.90;;;;;;4981783;28;20047;-93
2022/02/18 05:53:07;;;;;;;5.20;2.63;;;5.20;99.90;;;;;;4986225;28;20058;-92
2022/02/18 05:55:34;;;;;;;4.47;2.70;;;5.20;99.90;;;;;;4980627;28;20029;-92
2022/02/18 05:57:59;;;;;;;6.10;2.53;;;5.20;99.90;;;;;;4982733;28;20030;-92
2022/02/18 06:00:25;;;;;;;3.45;2.20;;;5.20;99.90;;;;;;4984467;28;20034;-94
2022/02/18 06:02:51;;;;;;;2.45;1.88;;;5.20;99.90;;;;;;4993371;28;20011;-90
2022/02/18 06:05:16;;;;;;;3.80;2.15;;;5.20;99.90;;;;;;4986975;28;20042;-90
2022/02/18 06:07:43;;;;;;;2.58;2.13;;;5.20;99.90;;;;;;4985330;28;20029;-89
2022/02/18 06:10:12;;;;;;;2.47;2.10;;;5.20;99.90;;;;;;4977336;28;20019;-88
2022/02/18 06:12:38;;;;;;;3.22;1.92;;;5.20;99.90;;;;;;4977576;28;20433;-91
2022/02/18 06:15:04;;;;;;;2.92;2.20;;;5.20;99.90;;;;;;4978309;28;20078;-92
2022/02/18 06:17:29;;;;;;;3.65;2.53;;;5.30;99.90;;;;;;4975579;28;20058;-93
2022/02/18 06:19:56;;;;;;;3.15;2.50;;;5.30;99.90;;;;;;4978188;28;20031;-89
2022/02/18 06:22:22;;;;;;;3.00;2.38;;;5.30;99.90;;;;;;4976279;28;20035;-92
2022/02/18 06:24:48;;;;;;;3.55;2.50;;;5.40;99.90;;;;;;4976682;28;20044;-91
2022/02/18 06:27:13;;;;;;;3.72;2.40;;;5.40;99.90;;;;;;4976322;28;20077;-92
2022/02/18 06:29:39;;;;;;;3.72;2.30;;;5.40;99.90;;;;;;4976679;28;20046;-91
2022/02/18 06:32:08;;;;;;;4.28;2.53;;;5.40;99.90;;;;;;4975354;28;20027;-92
2022/02/18 06:34:34;;;;;;;2.95;2.35;;;5.50;99.90;;;;;;4975510;28;20030;-85
2022/02/18 06:37:00;;;;;;;3.35;2.13;;;5.50;99.90;;;;;;4974779;28;20081;-84
2022/02/18 06:39:25;;;;;;;5.07;2.47;;;5.50;99.90;;;;;;4973615;28;20137;-84
2022/02/18 06:41:51;;;;;;;3.55;2.40;;;5.60;99.90;;;;;;4975005;28;20089;-87
2022/02/18 06:44:17;;;;;;;3.80;2.50;;;5.70;99.90;;;;;;4974999;28;20019;-86
2022/02/18 06:46:43;;;;;;;5.53;3.58;;;5.70;99.90;;;;;;4974320;28;20102;-89
2022/02/18 06:49:09;;;;;;;6.88;4.13;;;5.80;99.90;;;;;;4983693;28;20061;-89
2022/02/18 06:51:35;;;;;;;5.45;3.60;;;5.80;99.90;;;;;;4976760;28;20023;-90
2022/02/18 06:54:01;;;;;;;6.28;3.17;;;5.90;99.90;;;;;;4977275;28;20025;-91
2022/02/18 06:56:27;;;;;;;5.18;2.90;;;5.90;99.90;;;;;;4976490;28;20026;-94
2022/02/18 06:58:54;;;;;;;4.45;2.35;;;6.00;99.90;;;;;;4977230;28;20082;-94
2022/02/18 07:01:20;;;;;;;3.75;2.47;;;6.00;99.90;;;;;;4978602;28;20019;-92
2022/02/18 07:03:46;;;;;;;3.40;2.10;;;6.00;99.90;;;;;;4976136;28;20026;-94
2022/02/18 07:06:12;;;;;;;3.60;2.17;;;6.10;99.90;;;;;;4975210;28;20027;-93
2022/02/18 07:08:45;;;;;;;3.53;2.00;;;6.10;99.90;;;;;;4977176;28;20294;-94
2022/02/18 07:11:11;;;;;;;2.95;2.20;;;6.10;99.90;;;;;;4976651;28;20019;-94
2022/02/18 07:13:36;;;;;;;3.78;2.08;;;6.20;99.90;;;;;;4979727;28;20084;-93
2022/02/18 07:16:02;;;;;;;3.53;2.00;;;6.20;99.90;;;;;;4979183;28;20033;-93
2022/02/18 07:18:29;;;;;;;3.88;2.10;;;6.20;99.90;;;;;;4989261;28;20042;-93
2022/02/18 07:21:34;;;;;;;2.85;1.85;;;6.30;99.90;;;;;;4982311;28;20078;-92
2022/02/18 07:24:04;;;;;;;2.55;1.90;;;6.30;98.70;;;;;;4973862;28;20484;-86
2022/02/18 07:26:29;;;;;;;3.20;2.05;;;6.30;99.90;;;;;;4975190;28;20023;-87
2022/02/18 07:28:55;;;;;;;3.03;1.95;;;6.40;99.90;;;;;;4974438;28;20492;-89
2022/02/18 07:31:21;;;;;;;5.10;2.33;;;6.50;99.90;;;;;;4975776;28;20023;-88
2022/02/18 07:33:46;;;;;;;2.42;1.90;;;6.50;98.80;;;;;;4973785;28;20086;-89
2022/02/18 07:36:12;;;;;;;4.72;2.45;;;6.50;98.50;;;;;;4975490;28;20030;-88
2022/02/18 07:38:38;;;;;;;2.85;2.15;;;6.60;97.50;;;;;;4975418;28;20034;-88
2022/02/18 07:41:03;;;;;;;3.88;2.13;;;6.50;97.20;;;;;;4975553;28;20047;-90
2022/02/18 07:43:29;;;;;;;3.72;2.00;;;6.60;97.40;;;;;;4977585;28;20019;-92
2022/02/18 07:45:58;;;;;;;2.92;1.98;;;6.70;96.60;;;;;;4984439;28;20031;-91
2022/02/18 07:48:24;;;;;;;3.25;2.20;;;6.70;96.80;;;;;;4989650;28;20054;-93
2022/02/18 07:50:50;;;;;;;2.55;1.60;;;6.80;96.00;;;;;;4980399;28;20085;-95
2022/02/18 07:53:16;;;;;;;2.92;2.05;;;6.80;96.90;;;;;;4979708;28;20027;-94
2022/02/18 07:55:41;;;;;;;2.30;1.70;;;7.00;97.00;;;;;;4979066;28;20077;-92
2022/02/18 07:58:07;;;;;;;28.35;15.18;;;7.10;95.40;;;;;;4951992;29;20038;-88
2022/02/18 08:00:33;;;;;;;153.27;93.70;;;7.10;94.60;;;;;;4956446;29;20027;-85
2022/02/18 08:06:22;;;;;;;29.02;19.73;;;7.30;92.10;;;;;;4965589;28;20995;-89
2022/02/18 08:12:09;;;;;;;8.23;4.78;;;7.80;90.20;;;;;;4957648;29;20030;-86
2022/02/18 08:17:57;;;;;;;3.90;2.42;;;8.00;84.20;;;;;;4970182;28;20055;-95
2022/02/18 08:20:23;;;;;;;3.53;1.88;;;7.90;87.60;;;;;;4958952;28;20031;-93
2022/02/18 08:22:49;;;;;;;15.07;8.73;;;8.00;89.40;;;;;;4957962;28;20031;-92
2022/02/18 08:25:23;;;;;;;18.75;11.35;;;8.30;90.00;;;;;;4962275;28;20025;-91
2022/02/18 08:27:49;;;;;;;9.10;5.13;;;8.60;85.10;;;;;;4980340;28;20027;-90
2022/02/18 08:30:18;;;;;;;5.38;2.75;;;8.70;82.00;;;;;;4978038;28;20027;-93
2022/02/18 08:32:43;;;;;;;4.00;2.30;;;8.80;75.40;;;;;;4960056;28;20035;-90
2022/02/18 08:35:09;;;;;;;2.53;1.70;;;8.90;78.90;;;;;;4976071;28;20027;-90
2022/02/18 08:37:35;;;;;;;2.95;1.40;;;9.10;77.90;;;;;;4976887;28;20045;-92
2022/02/18 08:40:01;;;;;;;1.77;1.10;;;9.40;78.50;;;;;;4975419;28;20034;-91
2022/02/18 08:42:26;;;;;;;2.85;1.20;;;9.80;77.60;;;;;;4959837;28;20066;-90
2022/02/18 08:44:52;;;;;;;2.55;1.40;;;10.00;75.90;;;;;;4981404;28;20054;-87
2022/02/18 08:47:18;;;;;;;1.88;1.30;;;10.20;72.90;;;;;;4977349;28;20484;-88
2022/02/18 08:53:07;;;;;;;2.53;1.13;;;10.20;65.70;;;;;;4961877;28;20354;-85
2022/02/18 08:55:33;;;;;;;2.35;1.40;;;10.30;68.80;;;;;;4975032;28;20031;-84
2022/02/18 09:01:20;;;;;;;1.23;1.00;;;10.40;63.20;;;;;;4988425;28;20038;-82
2022/02/18 09:03:49;;;;;;;2.72;1.08;;;10.60;68.90;;;;;;4981797;28;20030;-84
2022/02/18 09:06:15;;;;;;;3.40;0.90;;;11.10;69.80;;;;;;4973798;28;20072;-86
2022/02/18 09:12:03;;;;;;;2.47;1.65;;;11.80;63.90;;;;;;4958501;29;20061;-88
2022/02/18 09:17:54;;;;;;;3.63;1.20;;;11.10;61.10;;;;;;4957470;28;20050;-85
2022/02/18 09:20:19;;;;;;;1.20;1.10;;;10.70;65.80;;;;;;4974893;28;20461;-86
2022/02/18 09:22:45;;;;;;;1.60;1.20;;;10.70;66.00;;;;;;4958176;28;20086;-85
2022/02/18 09:25:11;;;;;;;1.92;1.23;;;10.60;65.60;;;;;;4974121;28;20465;-86
2022/02/18 09:27:36;;;;;;;1.40;0.93;;;10.50;66.20;;;;;;4974648;28;20019;-87
2022/02/18 09:30:10;;;;;;;1.85;1.33;;;10.30;65.80;;;;;;4974635;28;20086;-88
2022/02/18 09:32:36;;;;;;;1.67;1.20;;;10.20;66.00;;;;;;4972288;28;20373;-86
2022/02/18 09:35:03;;;;;;;1.38;1.10;;;10.00;65.40;;;;;;4965179;28;20454;-85
2022/02/18 09:37:37;;;;;;;26.33;15.23;;;9.80;65.20;;;;;;4972545;28;20031;-86
2022/02/18 09:40:06;;;;;;;104.25;65.32;;;9.60;64.60;;;;;;4958495;28;20030;-87
2022/02/18 09:45:54;;;;;;;56.60;35.53;;;9.10;64.20;;;;;;4978472;28;20062;-88
2022/02/18 09:48:21;;;;;;;26.52;16.52;;;8.90;67.20;;;;;;4957064;28;20035;-87
2022/02/18 09:50:47;;;;;;;15.60;8.95;;;9.40;68.00;;;;;;4954959;29;20020;-88
2022/02/18 09:56:41;;;;;;;2.72;1.77;;;10.40;62.50;;;;;;4975996;28;20085;-92
2022/02/18 09:59:10;;;;;;;1.80;1.40;;;11.40;65.00;;;;;;4975402;28;20052;-89
2022/02/18 10:01:36;;;;;;;2.17;1.20;;;12.40;64.40;;;;;;4975964;28;20023;-88
2022/02/18 10:04:02;;;;;;;1.25;0.70;;;13.20;61.20;;;;;;4975936;28;20026;-89
2022/02/18 10:06:29;;;;;;;1.02;0.70;;;13.90;59.80;;;;;;4981548;28;20040;-88
2022/02/18 10:08:59;;;;;;;1.52;0.93;;;14.60;59.00;;;;;;5004444;28;20025;-90
2022/02/18 10:11:24;;;;;;;1.05;0.90;;;15.40;57.80;;;;;;4970711;28;20114;-88
2022/02/18 10:13:53;;;;;;;2.80;0.98;;;15.60;55.00;;;;;;4978452;28;20058;-90
2022/02/18 10:16:21;;;;;;;1.40;0.90;;;15.40;53.60;;;;;;4958746;28;20165;-91
2022/02/18 10:18:58;;;;;;;1.38;0.88;;;15.20;54.50;;;;;;4976201;28;20373;-91
2022/02/18 10:21:30;;;;;;;1.50;0.70;;;15.30;54.20;;;;;;4976827;28;20019;-93
2022/02/18 10:24:13;;;;;;;4.15;1.00;;;15.40;52.80;;;;;;4974107;28;20019;-92
2022/02/18 10:26:42;;;;;;;1.75;0.95;;;15.40;51.20;;;;;;4977394;28;20106;-92
2022/02/18 10:29:15;;;;;;;1.75;0.82;;;15.30;52.60;;;;;;4975020;28;20025;-92
2022/02/18 10:31:41;;;;;;;1.90;1.10;;;15.20;53.10;;;;;;4959978;28;20022;-90
2022/02/18 10:34:09;;;;;;;1.48;0.77;;;15.00;51.90;;;;;;4974545;28;20030;-91
2022/02/18 10:36:43;;;;;;;2.03;1.05;;;14.70;51.40;;;;;;4977157;28;20082;-93
2022/02/18 10:42:31;;;;;;;1.48;1.20;;;13.90;50.80;;;;;;4981064;28;20054;-88
2022/02/18 10:48:23;;;;;;;0.93;0.70;;;13.40;50.90;;;;;;4972091;28;20483;-89
2022/02/18 10:51:11;;;;;;;1.13;0.90;;;13.50;54.20;;;;;;4973902;28;20023;-87
2022/02/18 10:53:47;;;;;;;1.25;0.90;;;13.70;50.80;;;;;;4974063;28;20075;-89
2022/02/18 10:56:14;;;;;;;1.77;1.02;;;13.70;53.20;;;;;;4973417;28;20021;-88
2022/02/18 10:58:48;;;;;;;2.80;1.30;;;13.60;53.00;;;;;;4975740;28;20035;-86
2022/02/18 11:01:21;;;;;;;3.08;1.75;;;13.50;53.30;;;;;;4973997;28;20037;-86
2022/02/18 11:04:01;;;;;;;1.67;1.10;;;13.60;53.30;;;;;;4973577;28;20113;-85
2022/02/18 11:06:34;;;;;;;2.63;1.15;;;13.80;52.50;;;;;;4972591;28;20023;-86
2022/02/18 11:09:36;;;;;;;1.60;0.98;;;14.00;53.50;;;;;;4975572;28;20027;-88
2022/02/18 11:15:28;;;;;;;1.95;1.30;;;14.00;52.30;;;;;;4978899;28;20484;-89
2022/02/18 11:21:17;;;;;;;3.40;1.33;;;13.50;51.60;;;;;;4978743;28;20532;-91
2022/02/18 11:27:06;;;;;;;1.52;1.15;;;12.70;52.00;;;;;;4979104;28;20038;-92
2022/02/18 11:29:36;;;;;;;3.80;1.30;;;12.30;53.70;;;;;;4980605;28;20070;-90
2022/02/18 11:32:19;;;;;;;3.58;1.42;;;11.90;54.30;;;;;;4977753;28;20019;-93
2022/02/18 11:34:50;;;;;;;107.90;62.85;;;11.80;54.30;;;;;;4978006;28;20126;-91
2022/02/18 11:37:46;;;;;;;60.72;38.05;;;11.40;55.00;;;;;;4982762;28;20039;-92
2022/02/18 11:40:49;;;;;;;24.58;14.70;;;11.10;55.40;;;;;;4981566;28;20034;-92
2022/02/18 11:43:31;;;;;;;9.93;6.15;;;10.70;55.30;;;;;;4979483;28;20054;-90
2022/02/18 11:46:03;;;;;;;5.85;3.28;;;10.40;56.20;;;;;;4979235;28;20046;-90
2022/02/18 11:48:53;;;;;;;3.45;2.22;;;10.20;57.00;;;;;;4978537;28;20058;-90
2022/02/18 11:51:25;;;;;;;3.50;2.10;;;9.90;57.50;;;;;;4977794;28;20027;-92
2022/02/18 11:53:57;;;;;;;27.13;21.85;;;9.90;58.20;;;;;;4976898;28;20106;-84
2022/02/18 11:56:49;;;;;;;17.13;12.45;;;9.90;58.80;;;;;;4977277;28;20413;-89
2022/02/18 11:59:15;;;;;;;9.27;6.10;;;10.20;59.60;;;;;;4977504;28;20488;-90
2022/02/18 12:01:59;;;;;;;6.25;4.05;;;10.40;58.60;;;;;;4979294;28;20026;-88
2022/02/18 12:04:27;;;;;;;4.65;2.88;;;10.50;58.80;;;;;;4976857;28;20023;-88
2022/02/18 12:07:19;;;;;;;3.40;1.88;;;10.50;58.80;;;;;;4982580;28;20034;-89
2022/02/18 12:10:09;;;;;;;3.67;1.55;;;10.60;58.20;;;;;;4980724;28;20019;-91
2022/02/18 12:12:42;;;;;;;4.45;1.50;;;10.70;57.90;;;;;;4978568;28;20021;-92
2022/02/18 12:15:31;;;;;;;2.72;1.40;;;10.90;58.60;;;;;;4977907;28;20027;-94
2022/02/18 12:18:49;;;;;;;4.03;1.55;;;11.00;57.20;;;;;;4975778;28;20031;-87
2022/02/18 12:25:03;;;;;;;6.53;3.10;;;10.90;57.80;;;;;;4957292;28;20041;-87
2022/02/18 12:27:34;;;;;;;4.20;2.38;;;11.00;59.10;;;;;;4966907;28;20070;-89
2022/02/18 12:30:20;;;;;;;4.90;2.70;;;11.50;59.30;;;;;;4956945;29;20038;-89
2022/02/18 12:32:53;;;;;;;3.75;2.03;;;12.00;58.60;;;;;;4946617;29;20559;-92
2022/02/18 12:35:27;;;;;;;4.00;2.10;;;12.40;57.60;;;;;;4956501;29;20095;-87
2022/02/18 12:37:57;;;;;;;3.65;2.10;;;12.60;57.40;;;;;;4957098;29;20043;-89
2022/02/18 12:40:23;;;;;;;4.07;2.08;;;12.60;56.50;;;;;;4952110;29;20031;-89
2022/02/18 12:43:05;;;;;;;5.40;2.03;;;12.50;56.30;;;;;;4951360;29;20398;-87
2022/02/18 12:45:36;;;;;;;2.33;1.70;;;12.60;56.60;;;;;;4944081;29;20023;-85
2022/02/18 12:48:02;;;;;;;3.35;1.83;;;13.40;57.60;;;;;;4966393;29;20148;-86
2022/02/18 12:50:33;;;;;;;2.80;1.83;;;13.90;55.80;;;;;;4964894;29;20675;-90
2022/02/18 12:52:59;;;;;;;;;;;14.40;54.20;;;;;;4949923;29;20027;-88
2022/02/18 12:55:25;;;;;;;3.65;2.17;;;14.40;51.10;;;;;;4951895;28;19933;-85
2022/02/18 12:57:51;;;;;;;4.68;2.10;;;14.20;53.20;;;;;;4953175;29;20067;-89
2022/02/18 13:00:18;;;;;;;2.30;1.75;;;13.80;53.40;;;;;;4938899;29;20034;-88
2022/02/18 13:02:52;;;;;;;3.88;2.10;;;13.40;54.30;;;;;;4968656;28;20031;-88
2022/02/18 13:05:22;;;;;;;4.07;1.88;;;13.00;55.20;;;;;;4960360;29;20023;-86
2022/02/18 13:07:54;;;;;;;2.90;1.83;;;12.80;55.20;;;;;;4985627;28;20081;-89
2022/02/18 13:10:26;;;;;;;6.90;2.15;;;12.50;55.60;;;;;;4992406;28;20022;-89
2022/02/18 13:12:53;;;;;;;3.20;1.90;;;12.10;56.30;;;;;;4990369;28;20014;-90
2022/02/18 13:15:30;;;;;;;4.63;1.65;;;11.80;56.70;;;;;;4990876;28;20158;-88
2022/02/18 13:18:01;;;;;;;5.15;2.33;;;11.40;57.40;;;;;;4989998;28;20038;-88
2022/02/18 13:20:31;;;;;;;3.42;2.00;;;11.10;57.70;;;;;;4992204;28;20018;-91
2022/02/18 13:22:59;;;;;;;2.65;1.60;;;10.80;58.70;;;;;;4989895;28;20381;-88
2022/02/18 13:25:36;;;;;;;2.88;1.88;;;10.60;59.00;;;;;;4989045;28;20076;-90
2022/02/18 13:28:11;;;;;;;2.83;1.67;;;10.40;59.30;;;;;;5356738;23;20097;-89
2022/02/18 13:30:40;;;;;;;4.38;1.98;;;10.30;59.90;;;;;;5433701;23;20061;31
2022/02/18 13:35:59;;;;;;;;;;;10.20;60.60;;;;;;5303379;23;20121;-90
2022/02/18 13:38:36;;;;;;;7.43;4.60;;;9.90;62.50;;;;;;4977692;28;19913;-90
2022/02/18 13:41:19;;;;;;;8.43;4.70;;;9.80;61.40;;;;;;4977614;28;20046;-90
2022/02/18 13:43:49;;;;;;;7.75;4.60;;;9.70;61.20;;;;;;4973470;28;20547;-90
2022/02/18 13:46:35;;;;;;;7.80;3.80;;;9.60;61.50;;;;;;4972914;28;20033;-91
2022/02/18 13:49:23;;;;;;;5.22;2.95;;;9.40;62.10;;;;;;4990887;28;20022;-92
2022/02/18 13:51:51;;;;;;;6.63;3.10;;;9.20;62.30;;;;;;5001359;28;20029;-89
2022/02/18 13:54:19;;;;;;;4.05;2.35;;;9.10;62.60;;;;;;4993448;28;20029;-91
2022/02/18 13:56:47;;;;;;;4.13;2.28;;;8.90;63.20;;;;;;4993828;28;20022;-92